sensor_id;sensor_type;location;lat;lon;timestamp;temperature;humidity
4687;DHT22;2357;47.316;-1.348;2022-11-15T00:02:09;12.00;99.90
4687;DHT22;2357;47.316;-1.348;2022-11-15T00:04:35;11.90;99.90
4687;DHT22;2357;47.316;-1.348;2022-11-15T00:07:00;12.00;99.90
4687;DHT22;2357;47.316;-1.348;2022-11-15T00:09:26;12.00;99.90
4687;DHT22;2357;47.316;-1.348;2022-11-15T00:11:52;12.00;99.90
4687;DHT22;2357;47.316;-1.348;2022-11-15T00:14:17;12.00;99.90
4687;DHT22;2357;47.316;-1.348;2022-11-15T00:16:43;12.00;99.90
4687;DHT22;2357;47.316;-1.348;2022-11-15T00:19:09;12.00;99.90
4687;DHT22;2357;47.316;-1.348;2022-11-15T00:21:34;12.00;99.90
4687;DHT22;2357;47.316;-1.348;2022-11-15T00:24:00;12.00;99.90
4687;DHT22;2357;47.316;-1.348;2022-11-15T00:26:26;11.90;99.90
4687;DHT22;2357;47.316;-1.348;2022-11-15T00:28:52;11.90;99.90
4687;DHT22;2357;47.316;-1.348;2022-11-15T00:31:18;11.90;99.90
4687;DHT22;2357;47.316;-1.348;2022-11-15T00:33:44;12.00;99.90
4687;DHT22;2357;47.316;-1.348;2022-11-15T00:36:10;12.00;99.90
4687;DHT22;2357;47.316;-1.348;2022-11-15T00:38:38;12.00;99.90
4687;DHT22;2357;47.316;-1.348;2022-11-15T00:41:05;12.00;99.90
4687;DHT22;2357;47.316;-1.348;2022-11-15T00:43:32;11.90;99.90
4687;DHT22;2357;47.316;-1.348;2022-11-15T00:45:57;12.00;99.90
4687;DHT22;2357;47.316;-1.348;2022-11-15T00:48:23;12.00;99.90
4687;DHT22;2357;47.316;-1.348;2022-11-15T00:50:49;12.00;99.90
4687;DHT22;2357;47.316;-1.348;2022-11-15T00:53:15;12.00;99.90
4687;DHT22;2357;47.316;-1.348;2022-11-15T00:55:41;12.00;99.90
4687;DHT22;2357;47.316;-1.348;2022-11-15T00:58:07;12.00;99.90
4687;DHT22;2357;47.316;-1.348;2022-11-15T01:00:32;12.00;99.90
4687;DHT22;2357;47.316;-1.348;2022-11-15T01:02:59;12.00;99.90
4687;DHT22;2357;47.316;-1.348;2022-11-15T01:05:25;11.90;99.90
4687;DHT22;2357;47.316;-1.348;2022-11-15T01:07:54;12.00;99.90
4687;DHT22;2357;47.316;-1.348;2022-11-15T01:10:21;12.00;99.90
4687;DHT22;2357;47.316;-1.348;2022-11-15T01:12:47;12.00;99.90
4687;DHT22;2357;47.316;-1.348;2022-11-15T01:15:13;12.00;99.90
4687;DHT22;2357;47.316;-1.348;2022-11-15T01:17:39;12.00;99.90
4687;DHT22;2357;47.316;-1.348;2022-11-15T01:20:05;12.00;99.90
4687;DHT22;2357;47.316;-1.348;2022-11-15T01:22:30;12.00;99.90
4687;DHT22;2357;47.316;-1.348;2022-11-15T01:24:56;12.00;99.90
4687;DHT22;2357;47.316;-1.348;2022-11-15T01:27:22;12.00;99.90
4687;DHT22;2357;47.316;-1.348;2022-11-15T01:29:47;12.00;99.90
4687;DHT22;2357;47.316;-1.348;2022-11-15T01:32:13;12.00;99.90
4687;DHT22;2357;47.316;-1.348;2022-11-15T01:34:39;12.10;99.90
4687;DHT22;2357;47.316;-1.348;2022-11-15T01:37:05;12.10;99.90
4687;DHT22;2357;47.316;-1.348;2022-11-15T01:39:30;12.00;99.90
4687;DHT22;2357;47.316;-1.348;2022-11-15T01:41:56;12.00;99.90
4687;DHT22;2357;47.316;-1.348;2022-11-15T01:46:58;12.00;99.90
4687;DHT22;2357;47.316;-1.348;2022-11-15T01:49:26;12.00;99.90
4687;DHT22;2357;47.316;-1.348;2022-11-15T01:51:53;11.90;99.90
4687;DHT22;2357;47.316;-1.348;2022-11-15T01:54:21;11.90;99.90
4687;DHT22;2357;47.316;-1.348;2022-11-15T01:56:55;12.00;99.90
4687;DHT22;2357;47.316;-1.348;2022-11-15T01:59:22;12.00;99.90
4687;DHT22;2357;47.316;-1.348;2022-11-15T02:01:48;12.00;99.90
4687;DHT22;2357;47.316;-1.348;2022-11-15T02:06:49;12.00;99.90
4687;DHT22;2357;47.316;-1.348;2022-11-15T02:09:16;12.10;99.90
4687;DHT22;2357;47.316;-1.348;2022-11-15T02:11:42;12.10;99.90
4687;DHT22;2357;47.316;-1.348;2022-11-15T02:14:10;12.10;99.90
4687;DHT22;2357;47.316;-1.348;2022-11-15T02:16:47;12.00;99.90
4687;DHT22;2357;47.316;-1.348;2022-11-15T02:30:21;12.00;99.90
4687;DHT22;2357;47.316;-1.348;2022-11-15T02:41:35;12.10;99.90
4687;DHT22;2357;47.316;-1.348;2022-11-15T02:46:48;12.10;99.90
4687;DHT22;2357;47.316;-1.348;2022-11-15T02:49:34;12.00;99.90
4687;DHT22;2357;47.316;-1.348;2022-11-15T02:52:00;12.10;99.90
4687;DHT22;2357;47.316;-1.348;2022-11-15T02:54:30;12.10;99.90
4687;DHT22;2357;47.316;-1.348;2022-11-15T02:57:14;12.10;99.90
4687;DHT22;2357;47.316;-1.348;2022-11-15T03:02:49;12.10;99.90
4687;DHT22;2357;47.316;-1.348;2022-11-15T03:15:59;12.20;99.90
4687;DHT22;2357;47.316;-1.348;2022-11-15T03:18:34;12.20;99.90
4687;DHT22;2357;47.316;-1.348;2022-11-15T03:21:03;12.20;99.90
4687;DHT22;2357;47.316;-1.348;2022-11-15T03:23:30;12.20;99.90
4687;DHT22;2357;47.316;-1.348;2022-11-15T03:25:58;12.20;99.90
4687;DHT22;2357;47.316;-1.348;2022-11-15T03:28:37;12.20;99.90
4687;DHT22;2357;47.316;-1.348;2022-11-15T03:31:04;12.20;99.90
4687;DHT22;2357;47.316;-1.348;2022-11-15T03:33:52;12.20;99.90
4687;DHT22;2357;47.316;-1.348;2022-11-15T03:36:19;12.20;99.90
4687;DHT22;2357;47.316;-1.348;2022-11-15T03:38:46;12.20;99.90
4687;DHT22;2357;47.316;-1.348;2022-11-15T03:41:26;12.20;99.90
4687;DHT22;2357;47.316;-1.348;2022-11-15T03:43:58;12.30;99.90
4687;DHT22;2357;47.316;-1.348;2022-11-15T03:46:48;12.20;99.90
4687;DHT22;2357;47.316;-1.348;2022-11-15T03:49:35;12.20;99.90
4687;DHT22;2357;47.316;-1.348;2022-11-15T03:52:03;12.20;99.90
4687;DHT22;2357;47.316;-1.348;2022-11-15T03:54:29;12.20;99.90
4687;DHT22;2357;47.316;-1.348;2022-11-15T03:56:55;12.20;99.90
4687;DHT22;2357;47.316;-1.348;2022-11-15T03:59:21;12.20;99.90
4687;DHT22;2357;47.316;-1.348;2022-11-15T04:01:47;12.20;99.90
4687;DHT22;2357;47.316;-1.348;2022-11-15T04:04:12;12.30;99.90
4687;DHT22;2357;47.316;-1.348;2022-11-15T04:06:38;12.30;99.90
4687;DHT22;2357;47.316;-1.348;2022-11-15T04:09:04;12.30;99.90
4687;DHT22;2357;47.316;-1.348;2022-11-15T04:11:29;12.30;99.90
4687;DHT22;2357;47.316;-1.348;2022-11-15T04:13:55;12.30;99.90
4687;DHT22;2357;47.316;-1.348;2022-11-15T04:16:21;12.30;99.90
4687;DHT22;2357;47.316;-1.348;2022-11-15T04:18:46;12.30;99.90
4687;DHT22;2357;47.316;-1.348;2022-11-15T04:21:32;12.30;99.90
4687;DHT22;2357;47.316;-1.348;2022-11-15T04:24:16;12.40;99.90
4687;DHT22;2357;47.316;-1.348;2022-11-15T04:26:42;12.40;99.90
4687;DHT22;2357;47.316;-1.348;2022-11-15T04:29:07;12.40;99.90
4687;DHT22;2357;47.316;-1.348;2022-11-15T04:31:51;12.40;99.90
4687;DHT22;2357;47.316;-1.348;2022-11-15T04:34:17;12.40;99.90
4687;DHT22;2357;47.316;-1.348;2022-11-15T04:36:43;12.50;99.90
4687;DHT22;2357;47.316;-1.348;2022-11-15T04:39:27;12.40;99.90
4687;DHT22;2357;47.316;-1.348;2022-11-15T04:41:52;12.40;99.90
4687;DHT22;2357;47.316;-1.348;2022-11-15T04:44:18;12.40;99.90
4687;DHT22;2357;47.316;-1.348;2022-11-15T04:46:44;12.40;99.90
4687;DHT22;2357;47.316;-1.348;2022-11-15T04:49:09;12.40;99.90
4687;DHT22;2357;47.316;-1.348;2022-11-15T04:51:35;12.40;99.90
4687;DHT22;2357;47.316;-1.348;2022-11-15T04:54:00;12.40;99.90
4687;DHT22;2357;47.316;-1.348;2022-11-15T04:56:26;12.40;99.90
4687;DHT22;2357;47.316;-1.348;2022-11-15T04:58:52;12.40;99.90
4687;DHT22;2357;47.316;-1.348;2022-11-15T05:01:17;12.40;99.90
4687;DHT22;2357;47.316;-1.348;2022-11-15T05:03:43;12.40;99.90
4687;DHT22;2357;47.316;-1.348;2022-11-15T05:06:28;12.40;99.90
4687;DHT22;2357;47.316;-1.348;2022-11-15T05:08:54;12.40;99.90
4687;DHT22;2357;47.316;-1.348;2022-11-15T05:11:20;12.40;99.90
4687;DHT22;2357;47.316;-1.348;2022-11-15T05:13:46;12.40;99.90
4687;DHT22;2357;47.316;-1.348;2022-11-15T05:16:11;12.40;99.90
4687;DHT22;2357;47.316;-1.348;2022-11-15T05:18:37;12.40;99.90
4687;DHT22;2357;47.316;-1.348;2022-11-15T05:21:11;12.40;99.90
4687;DHT22;2357;47.316;-1.348;2022-11-15T05:23:37;12.40;99.90
4687;DHT22;2357;47.316;-1.348;2022-11-15T05:26:04;12.30;99.90
4687;DHT22;2357;47.316;-1.348;2022-11-15T05:28:30;12.30;99.90
4687;DHT22;2357;47.316;-1.348;2022-11-15T05:31:04;12.30;99.90
4687;DHT22;2357;47.316;-1.348;2022-11-15T05:33:31;12.30;99.90
4687;DHT22;2357;47.316;-1.348;2022-11-15T05:38:32;12.30;99.90
4687;DHT22;2357;47.316;-1.348;2022-11-15T05:40:59;12.30;99.90
4687;DHT22;2357;47.316;-1.348;2022-11-15T05:43:25;12.30;99.90
4687;DHT22;2357;47.316;-1.348;2022-11-15T05:45:51;12.30;99.90
4687;DHT22;2357;47.316;-1.348;2022-11-15T05:48:17;12.20;99.90
4687;DHT22;2357;47.316;-1.348;2022-11-15T05:50:45;12.20;99.90
4687;DHT22;2357;47.316;-1.348;2022-11-15T05:53:13;12.50;99.90
4687;DHT22;2357;47.316;-1.348;2022-11-15T05:55:40;12.10;99.90
4687;DHT22;2357;47.316;-1.348;2022-11-15T05:58:06;12.10;99.90
4687;DHT22;2357;47.316;-1.348;2022-11-15T06:00:32;12.10;99.90
4687;DHT22;2357;47.316;-1.348;2022-11-15T06:02:58;12.10;99.90
4687;DHT22;2357;47.316;-1.348;2022-11-15T06:05:23;12.00;99.90
4687;DHT22;2357;47.316;-1.348;2022-11-15T06:07:49;12.10;99.90
4687;DHT22;2357;47.316;-1.348;2022-11-15T06:10:14;12.10;99.90
4687;DHT22;2357;47.316;-1.348;2022-11-15T06:12:40;12.00;99.90
4687;DHT22;2357;47.316;-1.348;2022-11-15T06:15:06;12.00;99.90
4687;DHT22;2357;47.316;-1.348;2022-11-15T06:17:32;12.00;99.90
4687;DHT22;2357;47.316;-1.348;2022-11-15T06:19:57;12.00;99.90
4687;DHT22;2357;47.316;-1.348;2022-11-15T06:22:23;12.00;99.90
4687;DHT22;2357;47.316;-1.348;2022-11-15T06:24:48;12.00;99.90
4687;DHT22;2357;47.316;-1.348;2022-11-15T06:27:14;12.00;99.90
4687;DHT22;2357;47.316;-1.348;2022-11-15T06:29:39;12.00;99.90
4687;DHT22;2357;47.316;-1.348;2022-11-15T06:32:05;12.00;99.90
4687;DHT22;2357;47.316;-1.348;2022-11-15T06:34:31;12.00;99.90
4687;DHT22;2357;47.316;-1.348;2022-11-15T06:36:56;12.00;99.90
4687;DHT22;2357;47.316;-1.348;2022-11-15T06:39:22;12.00;99.90
4687;DHT22;2357;47.316;-1.348;2022-11-15T06:41:48;12.00;99.90
4687;DHT22;2357;47.316;-1.348;2022-11-15T06:44:13;12.00;99.90
4687;DHT22;2357;47.316;-1.348;2022-11-15T06:46:39;12.00;99.90
4687;DHT22;2357;47.316;-1.348;2022-11-15T06:49:04;12.00;99.90
4687;DHT22;2357;47.316;-1.348;2022-11-15T06:51:30;11.90;99.90
4687;DHT22;2357;47.316;-1.348;2022-11-15T06:53:56;12.00;99.90
4687;DHT22;2357;47.316;-1.348;2022-11-15T06:56:21;12.00;99.90
4687;DHT22;2357;47.316;-1.348;2022-11-15T06:58:47;12.00;99.90
4687;DHT22;2357;47.316;-1.348;2022-11-15T07:01:13;12.00;99.90
4687;DHT22;2357;47.316;-1.348;2022-11-15T07:03:40;12.00;99.90
4687;DHT22;2357;47.316;-1.348;2022-11-15T07:06:07;12.00;99.90
4687;DHT22;2357;47.316;-1.348;2022-11-15T07:08:33;12.00;99.90
4687;DHT22;2357;47.316;-1.348;2022-11-15T07:11:04;12.00;99.90
4687;DHT22;2357;47.316;-1.348;2022-11-15T07:13:31;12.00;99.90
4687;DHT22;2357;47.316;-1.348;2022-11-15T07:16:08;12.00;99.90
4687;DHT22;2357;47.316;-1.348;2022-11-15T07:18:38;12.00;99.90
4687;DHT22;2357;47.316;-1.348;2022-11-15T07:21:06;12.00;99.90
4687;DHT22;2357;47.316;-1.348;2022-11-15T07:23:33;12.00;99.90
4687;DHT22;2357;47.316;-1.348;2022-11-15T07:25:59;12.00;99.90
4687;DHT22;2357;47.316;-1.348;2022-11-15T07:28:26;12.00;99.90
4687;DHT22;2357;47.316;-1.348;2022-11-15T07:30:52;12.00;99.90
4687;DHT22;2357;47.316;-1.348;2022-11-15T07:33:18;12.00;99.90
4687;DHT22;2357;47.316;-1.348;2022-11-15T07:35:43;12.00;99.90
4687;DHT22;2357;47.316;-1.348;2022-11-15T07:38:11;12.10;99.90
4687;DHT22;2357;47.316;-1.348;2022-11-15T07:40:37;12.10;99.90
4687;DHT22;2357;47.316;-1.348;2022-11-15T07:43:05;12.10;99.90
4687;DHT22;2357;47.316;-1.348;2022-11-15T07:45:31;12.10;99.90
4687;DHT22;2357;47.316;-1.348;2022-11-15T07:47:59;12.10;99.90
4687;DHT22;2357;47.316;-1.348;2022-11-15T07:50:25;12.10;99.90
4687;DHT22;2357;47.316;-1.348;2022-11-15T07:52:55;12.10;99.90
4687;DHT22;2357;47.316;-1.348;2022-11-15T07:55:22;12.10;99.90
4687;DHT22;2357;47.316;-1.348;2022-11-15T07:57:48;12.10;99.90
4687;DHT22;2357;47.316;-1.348;2022-11-15T08:00:14;12.20;99.90
4687;DHT22;2357;47.316;-1.348;2022-11-15T08:02:40;12.20;99.90
4687;DHT22;2357;47.316;-1.348;2022-11-15T08:05:06;12.20;99.90
4687;DHT22;2357;47.316;-1.348;2022-11-15T08:07:31;12.20;99.90
4687;DHT22;2357;47.316;-1.348;2022-11-15T08:09:57;12.20;99.90
4687;DHT22;2357;47.316;-1.348;2022-11-15T08:12:24;12.20;99.90
4687;DHT22;2357;47.316;-1.348;2022-11-15T08:14:50;12.20;99.90
4687;DHT22;2357;47.316;-1.348;2022-11-15T08:17:15;12.20;99.90
4687;DHT22;2357;47.316;-1.348;2022-11-15T08:19:41;12.20;99.90
4687;DHT22;2357;47.316;-1.348;2022-11-15T08:22:07;12.20;99.90
4687;DHT22;2357;47.316;-1.348;2022-11-15T08:24:33;12.20;99.90
4687;DHT22;2357;47.316;-1.348;2022-11-15T08:26:59;12.20;99.90
4687;DHT22;2357;47.316;-1.348;2022-11-15T08:29:25;12.20;99.90
4687;DHT22;2357;47.316;-1.348;2022-11-15T08:31:50;12.30;99.90
4687;DHT22;2357;47.316;-1.348;2022-11-15T08:34:16;12.30;99.90
4687;DHT22;2357;47.316;-1.348;2022-11-15T08:36:42;12.30;99.90
4687;DHT22;2357;47.316;-1.348;2022-11-15T08:39:10;12.20;99.90
4687;DHT22;2357;47.316;-1.348;2022-11-15T08:41:37;12.30;99.90
4687;DHT22;2357;47.316;-1.348;2022-11-15T08:44:03;12.30;99.90
4687;DHT22;2357;47.316;-1.348;2022-11-15T08:46:29;12.30;99.90
4687;DHT22;2357;47.316;-1.348;2022-11-15T08:48:54;12.30;99.90
4687;DHT22;2357;47.316;-1.348;2022-11-15T08:51:20;12.30;99.90
4687;DHT22;2357;47.316;-1.348;2022-11-15T08:53:46;12.40;99.90
4687;DHT22;2357;47.316;-1.348;2022-11-15T08:56:13;12.40;99.90
4687;DHT22;2357;47.316;-1.348;2022-11-15T08:58:39;12.40;99.90
4687;DHT22;2357;47.316;-1.348;2022-11-15T09:01:05;12.40;99.90
4687;DHT22;2357;47.316;-1.348;2022-11-15T09:03:31;12.40;99.90
4687;DHT22;2357;47.316;-1.348;2022-11-15T09:05:58;12.40;99.90
4687;DHT22;2357;47.316;-1.348;2022-11-15T09:08:25;12.40;99.90
4687;DHT22;2357;47.316;-1.348;2022-11-15T09:10:54;12.40;99.90
4687;DHT22;2357;47.316;-1.348;2022-11-15T09:13:19;12.40;99.90
4687;DHT22;2357;47.316;-1.348;2022-11-15T09:15:45;12.50;99.90
4687;DHT22;2357;47.316;-1.348;2022-11-15T09:18:11;12.40;99.90
4687;DHT22;2357;47.316;-1.348;2022-11-15T09:20:36;12.40;99.90
4687;DHT22;2357;47.316;-1.348;2022-11-15T09:23:03;12.50;99.90
4687;DHT22;2357;47.316;-1.348;2022-11-15T09:25:29;12.50;99.90
4687;DHT22;2357;47.316;-1.348;2022-11-15T09:27:55;12.50;99.90
4687;DHT22;2357;47.316;-1.348;2022-11-15T09:30:21;12.40;99.90
4687;DHT22;2357;47.316;-1.348;2022-11-15T09:32:47;12.50;99.90
4687;DHT22;2357;47.316;-1.348;2022-11-15T09:35:13;12.50;99.90
4687;DHT22;2357;47.316;-1.348;2022-11-15T09:37:38;12.50;99.90
4687;DHT22;2357;47.316;-1.348;2022-11-15T09:40:04;12.50;99.90
4687;DHT22;2357;47.316;-1.348;2022-11-15T09:45:13;12.50;99.90
4687;DHT22;2357;47.316;-1.348;2022-11-15T09:50:51;12.50;99.90
4687;DHT22;2357;47.316;-1.348;2022-11-15T09:53:45;12.50;99.90
4687;DHT22;2357;47.316;-1.348;2022-11-15T09:56:31;12.60;99.90
4687;DHT22;2357;47.316;-1.348;2022-11-15T10:01:54;12.70;99.90
4687;DHT22;2357;47.316;-1.348;2022-11-15T10:04:22;12.80;99.90
4687;DHT22;2357;47.316;-1.348;2022-11-15T10:09:35;12.80;99.90
4687;DHT22;2357;47.316;-1.348;2022-11-15T10:12:04;12.80;99.90
4687;DHT22;2357;47.316;-1.348;2022-11-15T10:14:30;12.60;99.90
4687;DHT22;2357;47.316;-1.348;2022-11-15T10:22:39;12.90;99.90
4687;DHT22;2357;47.316;-1.348;2022-11-15T10:25:24;13.00;99.90
4687;DHT22;2357;47.316;-1.348;2022-11-15T10:27:59;13.00;99.90
4687;DHT22;2357;47.316;-1.348;2022-11-15T10:30:53;13.10;99.90
4687;DHT22;2357;47.316;-1.348;2022-11-15T10:41:22;13.20;99.90
4687;DHT22;2357;47.316;-1.348;2022-11-15T10:46:32;13.30;99.90
4687;DHT22;2357;47.316;-1.348;2022-11-15T10:54:43;13.40;99.90
4687;DHT22;2357;47.316;-1.348;2022-11-15T10:57:16;13.50;99.90
4687;DHT22;2357;47.316;-1.348;2022-11-15T10:59:48;13.60;99.90
4687;DHT22;2357;47.316;-1.348;2022-11-15T11:02:36;13.70;99.90
4687;DHT22;2357;47.316;-1.348;2022-11-15T11:05:36;13.80;99.90
4687;DHT22;2357;47.316;-1.348;2022-11-15T11:10:58;14.30;99.90
4687;DHT22;2357;47.316;-1.348;2022-11-15T11:26:54;14.70;99.90
4687;DHT22;2357;47.316;-1.348;2022-11-15T11:29:38;14.80;99.90
4687;DHT22;2357;47.316;-1.348;2022-11-15T11:49:51;14.10;99.90
4687;DHT22;2357;47.316;-1.348;2022-11-15T11:52:34;14.20;99.90
4687;DHT22;2357;47.316;-1.348;2022-11-15T12:00:27;14.30;99.90
4687;DHT22;2357;47.316;-1.348;2022-11-15T12:05:45;14.20;99.90
4687;DHT22;2357;47.316;-1.348;2022-11-15T12:11:27;14.30;99.90
4687;DHT22;2357;47.316;-1.348;2022-11-15T12:13:58;14.40;99.90
4687;DHT22;2357;47.316;-1.348;2022-11-15T12:16:28;14.40;99.90
4687;DHT22;2357;47.316;-1.348;2022-11-15T12:18:56;14.50;99.90
4687;DHT22;2357;47.316;-1.348;2022-11-15T12:21:47;14.80;99.90
4687;DHT22;2357;47.316;-1.348;2022-11-15T12:26:59;15.50;99.90
4687;DHT22;2357;47.316;-1.348;2022-11-15T12:29:40;15.30;99.90
4687;DHT22;2357;47.316;-1.348;2022-11-15T12:32:27;15.30;99.90
4687;DHT22;2357;47.316;-1.348;2022-11-15T12:34:54;15.40;99.90
4687;DHT22;2357;47.316;-1.348;2022-11-15T12:40:27;16.00;99.90
4687;DHT22;2357;47.316;-1.348;2022-11-15T12:45:40;16.40;99.90
4687;DHT22;2357;47.316;-1.348;2022-11-15T12:51:08;17.10;99.90
4687;DHT22;2357;47.316;-1.348;2022-11-15T12:53:34;17.40;99.90
4687;DHT22;2357;47.316;-1.348;2022-11-15T12:58:44;17.60;99.90
4687;DHT22;2357;47.316;-1.348;2022-11-15T13:06:58;17.10;99.90
4687;DHT22;2357;47.316;-1.348;2022-11-15T13:14:53;16.30;99.90
4687;DHT22;2357;47.316;-1.348;2022-11-15T13:19:47;16.30;99.90
4687;DHT22;2357;47.316;-1.348;2022-11-15T13:22:13;15.80;99.90
4687;DHT22;2357;47.316;-1.348;2022-11-15T13:24:59;15.60;99.90
4687;DHT22;2357;47.316;-1.348;2022-11-15T13:27:26;15.30;99.90
4687;DHT22;2357;47.316;-1.348;2022-11-15T13:29:52;15.10;99.90
4687;DHT22;2357;47.316;-1.348;2022-11-15T13:32:18;15.00;99.90
4687;DHT22;2357;47.316;-1.348;2022-11-15T13:34:46;15.10;99.90
4687;DHT22;2357;47.316;-1.348;2022-11-15T13:39:48;15.10;99.90
4687;DHT22;2357;47.316;-1.348;2022-11-15T13:42:15;15.20;99.90
4687;DHT22;2357;47.316;-1.348;2022-11-15T13:44:55;16.40;99.90
4687;DHT22;2357;47.316;-1.348;2022-11-15T13:47:21;18.90;99.90
4687;DHT22;2357;47.316;-1.348;2022-11-15T13:49:47;19.30;99.90
4687;DHT22;2357;47.316;-1.348;2022-11-15T13:52:14;18.90;99.90
4687;DHT22;2357;47.316;-1.348;2022-11-15T13:54:56;20.00;99.90
4687;DHT22;2357;47.316;-1.348;2022-11-15T13:57:46;21.80;99.90
4687;DHT22;2357;47.316;-1.348;2022-11-15T14:00:38;22.30;99.90
4687;DHT22;2357;47.316;-1.348;2022-11-15T14:03:23;20.20;99.90
4687;DHT22;2357;47.316;-1.348;2022-11-15T14:08:28;17.00;99.90
4687;DHT22;2357;47.316;-1.348;2022-11-15T14:11:09;16.40;99.90
4687;DHT22;2357;47.316;-1.348;2022-11-15T14:13:35;16.20;99.90
4687;DHT22;2357;47.316;-1.348;2022-11-15T14:16:15;16.40;99.90
4687;DHT22;2357;47.316;-1.348;2022-11-15T14:18:49;16.30;99.90
4687;DHT22;2357;47.316;-1.348;2022-11-15T14:21:17;16.00;99.90
4687;DHT22;2357;47.316;-1.348;2022-11-15T14:23:43;15.80;99.90
4687;DHT22;2357;47.316;-1.348;2022-11-15T14:26:33;15.60;99.90
4687;DHT22;2357;47.316;-1.348;2022-11-15T14:29:36;15.40;99.90
4687;DHT22;2357;47.316;-1.348;2022-11-15T14:32:19;15.30;99.90
4687;DHT22;2357;47.316;-1.348;2022-11-15T14:34:53;15.20;99.90
4687;DHT22;2357;47.316;-1.348;2022-11-15T14:37:25;15.20;99.90
4687;DHT22;2357;47.316;-1.348;2022-11-15T14:39:52;15.10;99.90
4687;DHT22;2357;47.316;-1.348;2022-11-15T14:42:18;15.00;99.90
4687;DHT22;2357;47.316;-1.348;2022-11-15T14:44:44;15.10;99.90
4687;DHT22;2357;47.316;-1.348;2022-11-15T14:47:10;15.10;99.90
4687;DHT22;2357;47.316;-1.348;2022-11-15T14:49:35;14.90;99.90
4687;DHT22;2357;47.316;-1.348;2022-11-15T14:52:01;14.80;99.90
4687;DHT22;2357;47.316;-1.348;2022-11-15T14:54:27;14.70;99.90
4687;DHT22;2357;47.316;-1.348;2022-11-15T14:56:52;14.70;99.90
4687;DHT22;2357;47.316;-1.348;2022-11-15T14:59:18;14.70;99.90
4687;DHT22;2357;47.316;-1.348;2022-11-15T15:01:44;14.70;99.90
4687;DHT22;2357;47.316;-1.348;2022-11-15T15:04:10;14.70;99.90
4687;DHT22;2357;47.316;-1.348;2022-11-15T15:06:36;14.70;99.90
4687;DHT22;2357;47.316;-1.348;2022-11-15T15:09:02;14.70;99.90
4687;DHT22;2357;47.316;-1.348;2022-11-15T15:11:31;14.70;99.90
4687;DHT22;2357;47.316;-1.348;2022-11-15T15:13:57;14.70;99.90
4687;DHT22;2357;47.316;-1.348;2022-11-15T15:16:24;14.70;99.90
4687;DHT22;2357;47.316;-1.348;2022-11-15T15:18:50;14.80;99.90
4687;DHT22;2357;47.316;-1.348;2022-11-15T15:21:23;14.80;99.90
4687;DHT22;2357;47.316;-1.348;2022-11-15T15:23:50;14.70;99.90
4687;DHT22;2357;47.316;-1.348;2022-11-15T15:26:16;14.80;99.90
4687;DHT22;2357;47.316;-1.348;2022-11-15T15:28:41;14.80;99.90
4687;DHT22;2357;47.316;-1.348;2022-11-15T15:31:09;14.80;99.90
4687;DHT22;2357;47.316;-1.348;2022-11-15T15:33:35;14.90;99.90
4687;DHT22;2357;47.316;-1.348;2022-11-15T15:36:00;14.80;99.90
4687;DHT22;2357;47.316;-1.348;2022-11-15T15:38:26;14.70;99.90
4687;DHT22;2357;47.316;-1.348;2022-11-15T15:40:52;14.40;99.90
4687;DHT22;2357;47.316;-1.348;2022-11-15T15:43:17;14.30;99.90
4687;DHT22;2357;47.316;-1.348;2022-11-15T15:45:43;13.70;99.90
4687;DHT22;2357;47.316;-1.348;2022-11-15T15:48:15;13.10;99.90
4687;DHT22;2357;47.316;-1.348;2022-11-15T15:50:42;13.30;99.90
4687;DHT22;2357;47.316;-1.348;2022-11-15T15:53:12;13.10;99.90
4687;DHT22;2357;47.316;-1.348;2022-11-15T15:55:38;13.10;99.90
4687;DHT22;2357;47.316;-1.348;2022-11-15T15:58:04;13.10;99.90
4687;DHT22;2357;47.316;-1.348;2022-11-15T16:00:31;13.10;99.90
4687;DHT22;2357;47.316;-1.348;2022-11-15T16:02:59;13.00;99.90
4687;DHT22;2357;47.316;-1.348;2022-11-15T16:05:24;12.90;99.90
4687;DHT22;2357;47.316;-1.348;2022-11-15T16:07:50;12.80;99.90
4687;DHT22;2357;47.316;-1.348;2022-11-15T16:10:23;12.70;99.90
4687;DHT22;2357;47.316;-1.348;2022-11-15T16:12:50;12.80;99.90
4687;DHT22;2357;47.316;-1.348;2022-11-15T16:15:16;12.80;99.90
4687;DHT22;2357;47.316;-1.348;2022-11-15T16:17:54;12.70;99.90
4687;DHT22;2357;47.316;-1.348;2022-11-15T16:20:32;12.60;99.90
4687;DHT22;2357;47.316;-1.348;2022-11-15T16:22:59;12.70;99.90
4687;DHT22;2357;47.316;-1.348;2022-11-15T16:25:25;12.60;99.90
4687;DHT22;2357;47.316;-1.348;2022-11-15T16:27:50;12.60;99.90
4687;DHT22;2357;47.316;-1.348;2022-11-15T16:30:22;12.60;99.90
4687;DHT22;2357;47.316;-1.348;2022-11-15T16:32:48;12.70;99.90
4687;DHT22;2357;47.316;-1.348;2022-11-15T16:35:15;12.60;99.90
4687;DHT22;2357;47.316;-1.348;2022-11-15T16:37:42;12.60;99.90
4687;DHT22;2357;47.316;-1.348;2022-11-15T16:40:30;12.60;99.90
4687;DHT22;2357;47.316;-1.348;2022-11-15T16:42:57;12.50;99.90
4687;DHT22;2357;47.316;-1.348;2022-11-15T16:45:24;12.60;99.90
4687;DHT22;2357;47.316;-1.348;2022-11-15T16:47:50;12.60;99.90
4687;DHT22;2357;47.316;-1.348;2022-11-15T16:50:27;12.60;99.90
4687;DHT22;2357;47.316;-1.348;2022-11-15T16:52:55;12.60;99.90
4687;DHT22;2357;47.316;-1.348;2022-11-15T16:55:25;12.60;99.90
4687;DHT22;2357;47.316;-1.348;2022-11-15T16:57:53;12.60;99.90
4687;DHT22;2357;47.316;-1.348;2022-11-15T17:00:20;12.70;99.90
4687;DHT22;2357;47.316;-1.348;2022-11-15T17:02:48;12.70;99.90
4687;DHT22;2357;47.316;-1.348;2022-11-15T17:05:16;12.80;99.90
4687;DHT22;2357;47.316;-1.348;2022-11-15T17:07:42;12.70;99.90
4687;DHT22;2357;47.316;-1.348;2022-11-15T17:10:10;12.80;99.90
4687;DHT22;2357;47.316;-1.348;2022-11-15T17:12:36;12.70;99.90
4687;DHT22;2357;47.316;-1.348;2022-11-15T17:15:03;12.70;99.90
4687;DHT22;2357;47.316;-1.348;2022-11-15T17:17:29;12.70;99.90
4687;DHT22;2357;47.316;-1.348;2022-11-15T17:19:55;12.60;99.90
4687;DHT22;2357;47.316;-1.348;2022-11-15T17:22:20;12.50;99.90
4687;DHT22;2357;47.316;-1.348;2022-11-15T17:24:46;12.60;99.90
4687;DHT22;2357;47.316;-1.348;2022-11-15T17:27:12;12.60;99.90
4687;DHT22;2357;47.316;-1.348;2022-11-15T17:29:37;12.50;99.90
4687;DHT22;2357;47.316;-1.348;2022-11-15T17:32:03;12.60;99.90
4687;DHT22;2357;47.316;-1.348;2022-11-15T17:34:29;12.50;99.90
4687;DHT22;2357;47.316;-1.348;2022-11-15T17:36:54;12.40;99.90
4687;DHT22;2357;47.316;-1.348;2022-11-15T17:39:20;12.50;99.90
4687;DHT22;2357;47.316;-1.348;2022-11-15T17:41:48;12.40;99.90
4687;DHT22;2357;47.316;-1.348;2022-11-15T17:44:14;12.40;99.90
4687;DHT22;2357;47.316;-1.348;2022-11-15T17:46:40;12.40;99.90
4687;DHT22;2357;47.316;-1.348;2022-11-15T17:49:06;12.40;99.90
4687;DHT22;2357;47.316;-1.348;2022-11-15T17:51:31;12.30;99.90
4687;DHT22;2357;47.316;-1.348;2022-11-15T17:53:57;12.30;99.90
4687;DHT22;2357;47.316;-1.348;2022-11-15T17:56:25;12.30;99.90
4687;DHT22;2357;47.316;-1.348;2022-11-15T17:58:55;12.30;99.90
4687;DHT22;2357;47.316;-1.348;2022-11-15T18:01:27;12.30;99.90
4687;DHT22;2357;47.316;-1.348;2022-11-15T18:03:53;12.20;99.90
4687;DHT22;2357;47.316;-1.348;2022-11-15T18:06:20;12.30;99.90
4687;DHT22;2357;47.316;-1.348;2022-11-15T18:08:48;12.20;99.90
4687;DHT22;2357;47.316;-1.348;2022-11-15T18:11:19;12.10;99.90
4687;DHT22;2357;47.316;-1.348;2022-11-15T18:13:48;12.00;99.90
4687;DHT22;2357;47.316;-1.348;2022-11-15T18:16:16;12.00;99.90
4687;DHT22;2357;47.316;-1.348;2022-11-15T18:18:42;12.00;99.90
4687;DHT22;2357;47.316;-1.348;2022-11-15T18:21:19;12.00;99.90
4687;DHT22;2357;47.316;-1.348;2022-11-15T18:23:46;11.90;99.90
4687;DHT22;2357;47.316;-1.348;2022-11-15T18:26:14;12.00;99.90
4687;DHT22;2357;47.316;-1.348;2022-11-15T18:28:43;11.90;99.90
4687;DHT22;2357;47.316;-1.348;2022-11-15T18:31:21;11.90;99.90